Airport View

Enter AWOS ICAO identifier for current METAR.

ex. KFNL

KVBW 192335Z AUTO 15006KT 10SM CLR 15/13 A3022 RMK AO1 T01520132

19 Oct 2020 23:38

Frequency: 119.55

Phone: 540-828-2076

Other Area AWOS: KSHD - KW13 - K8W2 - KCHO

TAF KCHO 191735Z 1918/2018 18008KT P6SM FEW040 FM200300 18003KT P6SM BKN200 FM200700 20003KT 3SM BR OVC010 FM201400 21003KT 5SM BR BKN100 FM201600 21005KT P6SM SCT200